createdAt,value
2022-12-12T00:01:41.030Z,6.57
2022-12-12T00:06:42.721Z,6.57
2022-12-12T00:11:49.016Z,6.53
2022-12-12T00:16:54.806Z,6.50
2022-12-12T00:21:56.543Z,6.46
2022-12-12T00:26:58.237Z,6.35
2022-12-12T00:32:00.317Z,6.29
2022-12-12T00:37:03.263Z,6.32
2022-12-12T00:42:04.885Z,6.34
2022-12-12T00:47:06.556Z,6.27
2022-12-12T00:52:08.162Z,6.24
2022-12-12T00:57:09.763Z,6.23
2022-12-12T01:02:12.398Z,6.28
2022-12-12T01:07:14.161Z,6.27
2022-12-12T01:12:15.784Z,6.27
2022-12-12T01:17:17.793Z,6.22
2022-12-12T01:22:19.498Z,6.26
2022-12-12T01:27:21.015Z,6.20
2022-12-12T01:32:22.757Z,6.22
2022-12-12T01:37:24.442Z,6.17
2022-12-12T01:42:27.532Z,6.13
2022-12-12T01:47:29.139Z,6.15
2022-12-12T01:52:43.700Z,6.12
2022-12-12T01:57:49.232Z,6.06
2022-12-12T02:02:52.406Z,6.05
2022-12-12T02:07:54.862Z,6.07
2022-12-12T02:13:03.438Z,6.08
2022-12-12T02:18:29.164Z,6.11
2022-12-12T02:23:49.706Z,6.16
2022-12-12T02:29:12.352Z,6.22
2022-12-12T02:34:30.828Z,6.20
2022-12-12T02:39:47.449Z,6.20
2022-12-12T02:44:57.252Z,6.28
2022-12-12T02:50:08.103Z,6.26
2022-12-12T02:55:10.146Z,6.23
2022-12-12T03:00:15.938Z,6.21
2022-12-12T03:05:59.410Z,6.14
2022-12-12T03:11:06.619Z,6.16
2022-12-12T03:16:45.128Z,6.23
2022-12-12T03:21:51.574Z,6.24
2022-12-12T03:27:22.415Z,6.25
2022-12-12T03:32:30.669Z,6.23
2022-12-12T03:37:41.060Z,6.24
2022-12-12T03:42:49.374Z,6.21
2022-12-12T03:48:04.272Z,6.23
2022-12-12T03:53:12.211Z,6.27
2022-12-12T03:58:20.977Z,6.27
2022-12-12T04:03:45.793Z,6.26
2022-12-12T04:09:06.490Z,6.26
2022-12-12T04:14:30.193Z,6.29
2022-12-12T04:20:14.905Z,6.29
2022-12-12T04:25:31.244Z,6.30
2022-12-12T04:30:34.950Z,6.21
2022-12-12T04:35:41.356Z,6.22
2022-12-12T04:40:45.154Z,6.27
2022-12-12T04:45:51.658Z,6.34
2022-12-12T04:50:53.714Z,6.38
2022-12-12T04:55:58.537Z,6.43
2022-12-12T05:01:13.359Z,6.41
2022-12-12T05:06:20.150Z,6.41
2022-12-12T05:11:22.478Z,6.45
2022-12-12T05:16:32.647Z,6.52
2022-12-12T05:21:34.365Z,6.46
2022-12-12T05:26:36.652Z,6.46
2022-12-12T05:31:38.345Z,6.51
2022-12-12T05:36:39.920Z,6.49
2022-12-12T05:41:41.830Z,6.53
2022-12-12T05:46:43.532Z,6.54
2022-12-12T05:51:45.114Z,6.51
2022-12-12T05:56:46.720Z,6.50
2022-12-12T06:01:48.416Z,6.50
2022-12-12T06:06:50.078Z,6.54
2022-12-12T06:11:51.589Z,6.56
2022-12-12T06:16:53.281Z,6.57
2022-12-12T06:21:54.860Z,6.57
2022-12-12T06:26:56.532Z,6.53
2022-12-12T06:31:58.244Z,6.52
2022-12-12T06:37:04.422Z,6.54
2022-12-12T06:42:06.046Z,6.59
2022-12-12T06:47:07.587Z,6.62
2022-12-12T06:52:09.342Z,6.67
2022-12-12T06:57:10.969Z,6.71
2022-12-12T07:02:12.558Z,6.66
2022-12-12T07:07:15.320Z,6.63
2022-12-12T07:12:17.296Z,6.56
2022-12-12T07:17:18.939Z,6.59
2022-12-12T07:22:20.728Z,6.59
2022-12-12T07:27:22.258Z,6.65
2022-12-12T07:32:23.871Z,6.69
2022-12-12T07:37:25.511Z,6.75
2022-12-12T07:42:27.264Z,6.80
2022-12-12T07:47:28.861Z,6.84
2022-12-12T07:52:30.478Z,6.87
2022-12-12T07:57:32.282Z,6.92
2022-12-12T08:02:34.050Z,6.97
2022-12-12T08:07:35.693Z,6.98
2022-12-12T08:12:37.521Z,6.98
2022-12-12T08:17:39.330Z,7.02
2022-12-12T08:22:41.256Z,7.04
2022-12-12T08:27:43.100Z,7.08
2022-12-12T08:32:44.804Z,7.14
2022-12-12T08:37:46.792Z,7.23
2022-12-12T08:42:48.575Z,7.29
2022-12-12T08:47:50.327Z,7.35
2022-12-12T08:52:52.035Z,7.48
2022-12-12T08:57:53.727Z,7.56
2022-12-12T09:02:55.647Z,7.67
2022-12-12T09:07:59.625Z,7.79
2022-12-12T09:13:01.645Z,7.84
2022-12-12T09:18:03.959Z,7.80
2022-12-12T09:23:05.637Z,7.87
2022-12-12T09:28:08.181Z,7.94
2022-12-12T09:33:10.780Z,8.01
2022-12-12T09:38:14.640Z,8.04
2022-12-12T09:43:19.219Z,8.07
2022-12-12T09:48:26.545Z,8.10
2022-12-12T09:53:28.625Z,8.08
2022-12-12T09:58:36.467Z,8.01
2022-12-12T10:03:50.897Z,7.98
2022-12-12T10:08:58.906Z,8.00
2022-12-12T10:14:01.683Z,8.02
2022-12-12T10:19:08.743Z,8.05
2022-12-12T10:24:29.986Z,8.01
2022-12-12T10:29:33.538Z,7.98
2022-12-12T10:34:41.526Z,7.90
2022-12-12T10:39:51.219Z,7.82
2022-12-12T10:45:22.348Z,7.88
2022-12-12T10:50:28.448Z,7.92
2022-12-12T10:55:37.156Z,7.97
2022-12-12T11:00:40.570Z,8.06
2022-12-12T11:05:42.304Z,8.12
2022-12-12T11:10:44.354Z,8.15
2022-12-12T11:15:50.482Z,8.23
2022-12-12T11:21:11.827Z,8.32
2022-12-12T11:26:28.339Z,8.39
2022-12-12T11:36:49.648Z,8.01
2022-12-12T11:42:03.500Z,8.58
2022-12-12T11:47:26.983Z,8.65
2022-12-12T11:52:31.457Z,8.72
2022-12-12T11:57:41.535Z,8.80
2022-12-12T12:03:08.381Z,8.93
2022-12-12T12:08:24.118Z,8.89
2022-12-12T12:13:42.499Z,8.83
2022-12-12T12:19:08.378Z,8.84
2022-12-12T12:24:28.354Z,8.87
2022-12-12T12:29:48.365Z,8.88
2022-12-12T12:35:08.816Z,8.89
2022-12-12T12:40:31.712Z,8.86
2022-12-12T12:45:49.323Z,8.89
2022-12-12T12:51:10.692Z,8.92
2022-12-12T12:56:27.999Z,8.92
2022-12-12T13:01:38.762Z,8.96
2022-12-12T13:06:47.161Z,8.97
2022-12-12T13:11:53.200Z,8.91
2022-12-12T13:16:56.189Z,8.79
2022-12-12T13:22:07.890Z,8.64
2022-12-12T13:27:23.594Z,8.61
2022-12-12T13:32:45.350Z,8.59
2022-12-12T13:37:48.285Z,8.54
2022-12-12T13:43:07.251Z,8.49
2022-12-12T13:48:27.088Z,8.40
2022-12-12T13:53:28.889Z,8.35
2022-12-12T13:58:34.983Z,8.32
2022-12-12T14:03:37.105Z,8.34
2022-12-12T14:08:48.924Z,8.34
2022-12-12T14:13:51.441Z,8.32
2022-12-12T14:19:00.145Z,8.23
2022-12-12T14:24:34.155Z,8.22
2022-12-12T14:29:43.748Z,8.15
2022-12-12T14:35:06.834Z,8.11
2022-12-12T14:40:30.449Z,8.10
2022-12-12T14:45:39.443Z,8.12
2022-12-12T14:50:46.800Z,8.14
2022-12-12T14:55:56.977Z,8.14
2022-12-12T15:01:01.702Z,8.09
2022-12-12T15:06:20.451Z,8.11
2022-12-12T15:11:30.455Z,8.19
2022-12-12T15:16:50.351Z,8.25
2022-12-12T15:21:52.598Z,8.27
2022-12-12T15:26:57.335Z,8.30
2022-12-12T15:32:02.572Z,8.30
2022-12-12T15:37:20.545Z,8.29
2022-12-12T15:42:22.493Z,8.37
2022-12-12T15:47:24.120Z,8.48
2022-12-12T15:52:27.178Z,8.46
2022-12-12T15:57:32.696Z,8.46
2022-12-12T16:02:38.361Z,8.42
2022-12-12T16:07:40.819Z,8.47
2022-12-12T16:13:00.601Z,8.48
2022-12-12T16:18:17.572Z,8.45
2022-12-12T16:23:30.662Z,8.38
2022-12-12T16:28:32.317Z,8.35
2022-12-12T16:33:38.517Z,8.33
2022-12-12T16:38:41.459Z,8.36
2022-12-12T16:43:43.879Z,8.35
2022-12-12T16:48:46.121Z,8.30
2022-12-12T16:53:47.948Z,8.24
2022-12-12T16:58:50.594Z,8.23
2022-12-12T17:03:52.389Z,8.26
2022-12-12T17:08:54.188Z,8.23
2022-12-12T17:13:55.939Z,8.20
2022-12-12T17:18:58.550Z,8.11
2022-12-12T17:24:00.321Z,8.07
2022-12-12T17:29:02.838Z,8.04
2022-12-12T17:34:05.511Z,8.02
2022-12-12T17:39:07.929Z,8.01
2022-12-12T17:44:09.601Z,7.97
2022-12-12T17:49:11.399Z,7.90
2022-12-12T17:54:13.306Z,7.87
2022-12-12T17:59:16.416Z,7.86
2022-12-12T18:04:20.810Z,7.86
2022-12-12T18:09:23.687Z,7.80
2022-12-12T18:14:25.367Z,7.81
2022-12-12T18:19:28.981Z,7.87
2022-12-12T18:24:32.537Z,7.84
2022-12-12T18:29:34.162Z,7.85
2022-12-12T18:34:36.130Z,7.87
2022-12-12T18:39:37.686Z,7.90
2022-12-12T18:44:39.298Z,7.85
2022-12-12T18:49:40.995Z,7.82
2022-12-12T18:54:42.620Z,7.80
2022-12-12T18:59:44.276Z,7.79
2022-12-12T19:04:47.671Z,7.83
2022-12-12T19:09:49.267Z,7.80
2022-12-12T19:20:13.025Z,7.80
2022-12-12T19:25:16.281Z,7.77
2022-12-12T19:30:18.475Z,7.73
2022-12-12T19:35:20.437Z,7.62
2022-12-12T19:40:22.099Z,7.61
2022-12-12T19:45:23.636Z,7.56
2022-12-12T19:50:25.432Z,7.50
2022-12-12T19:55:27.263Z,7.45
2022-12-12T20:00:28.871Z,7.41
2022-12-12T20:05:30.410Z,7.41
2022-12-12T20:10:35.728Z,7.44
2022-12-12T20:15:38.745Z,7.44
2022-12-12T20:20:40.333Z,7.52
2022-12-12T20:25:42.770Z,7.52
2022-12-12T20:30:44.402Z,7.47
2022-12-12T20:35:47.178Z,7.45
2022-12-12T20:40:49.161Z,7.31
2022-12-12T20:45:51.109Z,7.29
2022-12-12T20:50:54.973Z,7.34
2022-12-12T20:56:05.192Z,7.30
2022-12-12T21:01:17.868Z,7.25
2022-12-12T21:06:21.677Z,7.31
2022-12-12T21:11:56.219Z,7.32
2022-12-12T21:16:58.024Z,7.34
2022-12-12T21:21:59.678Z,7.36
2022-12-12T21:27:01.307Z,7.26
2022-12-12T21:32:03.465Z,7.20
2022-12-12T21:37:05.097Z,7.23
2022-12-12T21:42:06.658Z,7.18
2022-12-12T21:47:08.321Z,7.16
2022-12-12T21:52:11.844Z,7.09
2022-12-12T21:57:13.587Z,7.04
2022-12-12T22:02:15.483Z,7.05
2022-12-12T22:07:19.224Z,7.11
2022-12-12T22:12:22.888Z,7.06
2022-12-12T22:17:24.508Z,6.97
2022-12-12T22:22:26.657Z,6.90
2022-12-12T22:27:28.278Z,6.81
2022-12-12T22:32:31.020Z,6.68
2022-12-12T22:37:32.512Z,6.64
2022-12-12T22:42:34.107Z,6.56
2022-12-12T22:47:35.841Z,6.52
2022-12-12T22:52:37.493Z,6.49
2022-12-12T22:57:39.017Z,6.51
2022-12-12T23:02:40.650Z,6.50
2022-12-12T23:07:43.245Z,6.41
2022-12-12T23:12:44.845Z,6.39
2022-12-12T23:17:46.353Z,6.43
2022-12-12T23:22:47.987Z,6.44
2022-12-12T23:27:49.540Z,6.40
2022-12-12T23:32:51.148Z,6.33
2022-12-12T23:37:52.781Z,6.36
2022-12-12T23:42:54.472Z,6.31
2022-12-12T23:47:56.004Z,6.23
2022-12-12T23:52:58.718Z,6.16
2022-12-12T23:58:00.318Z,6.08
